Maratha Promise — V7YE5 — position and weather

sailwx.info

Track history (hours):
 
Tides and Currents Weather Stations Pressure Air Temp Water Temp Dewpoint Dewpoint Depression Visibility Wind Speed Wind Dir Waves Ship Positions

Maratha Promise

Last reported at 2016-Dec-02 16:33 UTC. Time now 2016-Dec-03 19:40 UTC.
Position N 46°15' W 125°30'.

Length 178 m; draft 11 m.

Type: Cargo ship. MMSI: 538004641.

Date/timePositionNaut miles runAvg speedWind from/ knotsBaromVisibWave heightAir tempDewpointWater temp
2016-Dec-02 16:33N 46°15' W 125°30'8 8.5
2016-Dec-02 15:33N 46°15' W 125°18'8 8.4
2016-Dec-02 14:33N 46°15' W 125°05'8 8.1
2016-Dec-02 13:33N 46°15' W 124°54'8 7.9
2016-Dec-02 12:33N 46°15' W 124°42'8 8.1
2016-Dec-02 11:33N 46°15' W 124°31'8 8.3
2016-Dec-02 10:33N 46°13' W 124°19'8 6.8
2016-Dec-02 09:27N 46°13' W 124°08'9 7.6
2016-Dec-02 08:17N 46°12' W 123°56'6 8.2
2016-Dec-02 07:33N 46°13' W 123°47'1111.1
2016-Dec-02 06:33N 46°16' W 123°32'10 9.8
2016-Dec-02 05:33N 46°09' W 123°22'1211.9
2016-Dec-02 04:33N 46°10' W 123°05'1111.1
2016-Dec-02 03:33N 46°03' W 122°53'1110.9
2016-Dec-02 02:33N 45°52' W 122°47'1211.6
2016-Dec-02 01:34N 45°41' W 122°46'7 7.2
2016-Dec-02 00:33N 45°34' W 122°44'3 2.7
2016-Dec-01 23:30N 45°32' W 122°41'0 0.0
2016-Dec-01 22:18N 45°32' W 122°41'0 0.0
2016-Dec-01 21:24N 45°32' W 122°41'0 0.0
2016-Dec-01 20:21N 45°32' W 122°41'0 0.0
2016-Dec-01 19:33N 45°32' W 122°41'6 6.1
2016-Dec-01 18:33N 45°36' W 122°47'8 8.2
2016-Dec-01 17:33N 45°44' W 122°46'9 8.9
2016-Dec-01 16:33N 45°53' W 122°48'9 9.0
2016-Dec-01 15:33N 46°02' W 122°52'5 5.0
2016-Dec-01 14:32N 46°06' W 122°56'0 0.0
2016-Dec-01 13:32N 46°06' W 122°56'0 0.0
2016-Dec-01 12:29N 46°06' W 122°56'0 0.0
2016-Dec-01 11:32N 46°06' W 122°56'0 0.0
2016-Dec-01 10:29N 46°06' W 122°56'0 0.0
2016-Dec-01 09:29N 46°06' W 122°56'0 0.0
2016-Dec-01 08:29N 46°06' W 122°56'0 0.0
2016-Dec-01 07:32N 46°06' W 122°56'0 0.0
2016-Dec-01 06:29N 46°06' W 122°56'0 0.0
2016-Dec-01 05:29N 46°06' W 122°56'0 0.0
2016-Dec-01 04:32N 46°06' W 122°56'0 0.0
2016-Dec-01 03:32N 46°06' W 122°56'0 0.0
2016-Dec-01 02:32N 46°06' W 122°56'0 0.0
2016-Dec-01 01:32N 46°06' W 122°56'0 0.0
2016-Dec-01 00:32N 46°06' W 122°56'0 0.0
2016-Nov-30 23:32N 46°06' W 122°56'0 0.0
2016-Nov-30 22:32N 46°06' W 122°56'0 0.0
2016-Nov-30 21:32N 46°06' W 122°56'0 0.0
2016-Nov-30 20:29N 46°06' W 122°56'0 0.0
2016-Nov-30 19:32N 46°06' W 122°56'0 0.0
2016-Nov-30 18:29N 46°06' W 122°56'0 0.0
2016-Nov-30 17:32N 46°06' W 122°56'0 0.0
2016-Nov-30 16:29N 46°06' W 122°56'0 0.0
2016-Nov-30 15:32N 46°06' W 122°56'0 0.0
2016-Nov-30 14:32N 46°06' W 122°56'0 0.0
2016-Nov-30 13:32N 46°06' W 122°56'0 0.0
2016-Nov-30 12:32N 46°06' W 122°56'0 0.0
2016-Nov-30 11:32N 46°06' W 122°56'0 0.0
2016-Nov-30 10:32N 46°06' W 122°56'0 0.0
2016-Nov-30 09:32N 46°06' W 122°56'0 0.0
2016-Nov-30 08:32N 46°06' W 122°56'0 0.0
2016-Nov-30 07:32N 46°06' W 122°56'0 0.0
2016-Nov-30 06:29N 46°06' W 122°56'0 0.0
2016-Nov-30 05:32N 46°06' W 122°56'0 0.0
2016-Nov-30 04:32N 46°06' W 122°56'0 0.0
2016-Nov-30 03:32N 46°06' W 122°56'0 0.0
2016-Nov-30 02:29N 46°06' W 122°56'0 0.0
2016-Nov-30 01:29N 46°06' W 122°56'0 0.0
2016-Nov-30 00:32N 46°06' W 122°56'0 0.0
2016-Nov-29 23:32N 46°06' W 122°56'0 0.0
2016-Nov-29 22:32N 46°06' W 122°56'0 0.0
2016-Nov-29 21:32N 46°06' W 122°56'0 0.0
2016-Nov-29 20:29N 46°06' W 122°56'0 0.0
2016-Nov-29 19:32N 46°06' W 122°56'0 0.3
2016-Nov-29 18:33N 46°06' W 122°57'2 1.8
2016-Nov-29 17:33N 46°07' W 122°59'0 0.0
2016-Nov-29 16:33N 46°07' W 122°59'0 0.0
2016-Nov-29 15:30N 46°07' W 122°59'0 0.0
2016-Nov-29 14:33N 46°07' W 122°59'0 0.0
2016-Nov-29 13:33N 46°07' W 122°59'0 0.0
2016-Nov-29 12:33N 46°07' W 122°59'0 0.0
2016-Nov-29 11:33N 46°07' W 122°59'0 0.0
2016-Nov-29 10:30N 46°07' W 122°59'0 0.0
2016-Nov-29 09:33N 46°07' W 122°59'0 0.0
2016-Nov-29 08:33N 46°07' W 122°59'0 0.0
2016-Nov-29 07:30N 46°07' W 122°59'0 0.0
2016-Nov-29 06:33N 46°07' W 122°59'0 0.0
2016-Nov-29 05:33N 46°07' W 122°59'0 0.0
2016-Nov-29 04:30N 46°07' W 122°59'0 0.0
2016-Nov-29 03:33N 46°07' W 122°59'0 0.0
2016-Nov-29 02:30N 46°07' W 122°59'0 0.0
2016-Nov-29 01:33N 46°07' W 122°59'0 0.0
2016-Nov-29 00:33N 46°07' W 122°59'0 0.0
2016-Nov-28 23:33N 46°07' W 122°59'0 0.0
2016-Nov-28 22:33N 46°07' W 122°59'0 0.0
2016-Nov-28 21:30N 46°07' W 122°59'0 0.0
2016-Nov-28 20:33N 46°07' W 122°59'0 0.0
2016-Nov-28 19:33N 46°07' W 122°59'0 0.0
2016-Nov-28 18:33N 46°07' W 122°59'0 0.0
2016-Nov-28 17:33N 46°07' W 122°59'0 0.0
2016-Nov-28 16:33N 46°07' W 122°59'0 0.0
2016-Nov-28 15:33N 46°07' W 122°59'0 0.0
2016-Nov-28 14:30N 46°07' W 122°59'0 0.0
2016-Nov-28 13:33N 46°07' W 122°59'0 0.0
2016-Nov-28 12:33N 46°07' W 122°59'0 0.0
2016-Nov-28 11:33N 46°07' W 122°59'0 0.0
2016-Nov-28 10:33N 46°07' W 122°59'0 0.0
2016-Nov-28 09:33N 46°07' W 122°59'0 0.0
2016-Nov-28 08:33N 46°07' W 122°59'0 0.0
2016-Nov-28 07:30N 46°07' W 122°59'0 0.0
2016-Nov-28 06:33N 46°07' W 122°59'0 0.0
2016-Nov-28 05:33N 46°07' W 122°59'0 0.0
2016-Nov-28 04:33N 46°07' W 122°59'0 0.0
2016-Nov-28 03:30N 46°07' W 122°59'0 0.0
2016-Nov-28 02:30N 46°07' W 122°59'0 0.0
2016-Nov-28 01:33N 46°07' W 122°59'0 0.0
2016-Nov-28 00:33N 46°07' W 122°59'0 0.0
2016-Nov-27 23:33N 46°07' W 122°59'0 0.0
2016-Nov-27 22:33N 46°07' W 122°59'0 0.0
2016-Nov-27 21:33N 46°07' W 122°59'0 0.0
2016-Nov-27 20:33N 46°07' W 122°59'0 0.0
2016-Nov-27 19:33N 46°07' W 122°59'0 0.0
2016-Nov-27 18:33N 46°07' W 122°59'0 0.0
2016-Nov-27 17:33N 46°07' W 122°59'0 0.0
2016-Nov-27 16:33N 46°07' W 122°59'0 0.0
2016-Nov-27 15:27N 46°07' W 122°59'0 0.0
2016-Nov-27 14:33N 46°07' W 122°59'0 0.0
2016-Nov-27 13:33N 46°07' W 122°59'0 0.0
2016-Nov-27 12:33N 46°07' W 122°59'0 0.0
2016-Nov-27 11:33N 46°07' W 122°59'0 0.0
2016-Nov-27 10:33N 46°07' W 122°59'0 0.0
2016-Nov-27 09:33N 46°07' W 122°59'0 0.0
2016-Nov-27 08:33N 46°07' W 122°59'0 0.0
2016-Nov-27 07:33N 46°07' W 122°59'0 0.0
2016-Nov-27 06:33N 46°07' W 122°59'0 0.0
2016-Nov-27 05:33N 46°07' W 122°59'0 0.0
2016-Nov-27 04:33N 46°07' W 122°59'0 0.0
2016-Nov-27 03:33N 46°07' W 122°59'0 0.0
2016-Nov-27 02:33N 46°07' W 122°59'0 0.0
2016-Nov-27 01:33N 46°07' W 122°59'0 0.0
2016-Nov-27 00:33N 46°07' W 122°59'0 0.0
2016-Nov-26 23:33N 46°07' W 122°59'0 0.0
2016-Nov-26 22:33N 46°07' W 122°59'0 0.0
2016-Nov-26 21:33N 46°07' W 122°59'0 0.0
2016-Nov-26 20:33N 46°07' W 122°59'0 0.0
2016-Nov-26 19:33N 46°07' W 122°59'0 0.0
2016-Nov-26 18:33N 46°07' W 122°59'0 0.0
2016-Nov-26 17:33N 46°07' W 122°59'0 0.0
2016-Nov-26 16:30N 46°07' W 122°59'0 0.0
2016-Nov-26 15:30N 46°07' W 122°59'0 0.0
2016-Nov-26 14:33N 46°07' W 122°59'0 0.0
2016-Nov-26 13:30N 46°07' W 122°59'0 0.0
2016-Nov-26 12:33N 46°07' W 122°59'0 0.0
2016-Nov-26 11:30N 46°07' W 122°59'0 0.0
2016-Nov-26 10:33N 46°07' W 122°59'0 0.0
2016-Nov-26 09:33N 46°07' W 122°59'0 0.0
2016-Nov-26 08:33N 46°07' W 122°59'0 0.0
2016-Nov-26 07:33N 46°07' W 122°59'0 0.0
2016-Nov-26 06:30N 46°07' W 122°59'0 0.0
2016-Nov-26 05:33N 46°07' W 122°59'0 0.0
2016-Nov-26 04:33N 46°07' W 122°59'0 0.0
2016-Nov-26 03:33N 46°07' W 122°59'0 0.0
2016-Nov-26 02:33N 46°07' W 122°59'0 0.0
2016-Nov-26 01:33N 46°07' W 122°59'0 0.0
2016-Nov-26 00:33N 46°07' W 122°59'0 0.0
2016-Nov-25 23:30N 46°07' W 122°59'0 0.0
2016-Nov-25 22:33N 46°07' W 122°59'0 0.0
2016-Nov-25 21:33N 46°07' W 122°59'0 0.0
2016-Nov-25 20:33N 46°07' W 122°59'0 0.0
2016-Nov-25 19:33N 46°07' W 122°59'0 0.0
2016-Nov-25 18:33N 46°07' W 122°59'0 0.0
2016-Nov-25 17:30N 46°07' W 122°59'0 0.0
2016-Nov-25 16:33N 46°07' W 122°59'0 0.0
2016-Nov-25 15:33N 46°07' W 122°59'0 0.0
2016-Nov-25 14:33N 46°07' W 122°59'0 0.0
2016-Nov-25 13:33N 46°07' W 122°59'0 0.0
2016-Nov-25 12:30N 46°07' W 122°59'0 0.0
2016-Nov-25 11:33N 46°07' W 122°59'0 0.0
2016-Nov-25 10:33N 46°07' W 122°59'0 0.0
2016-Nov-25 09:33N 46°07' W 122°59'0 0.0
2016-Nov-25 08:30N 46°07' W 122°59'0 0.0
2016-Nov-25 07:33N 46°07' W 122°59'0 0.0
2016-Nov-25 06:33N 46°07' W 122°59'0 0.0
2016-Nov-25 05:30N 46°07' W 122°59'0 0.0
2016-Nov-25 04:33N 46°07' W 122°59'0 0.0
2016-Nov-25 03:33N 46°07' W 122°59'0 0.0
2016-Nov-25 02:33N 46°07' W 122°59'0 0.0
2016-Nov-25 01:33N 46°07' W 122°59'0 0.0
2016-Nov-25 00:33N 46°07' W 122°59'0 0.0
2016-Nov-24 23:33N 46°07' W 122°59'0 0.0
2016-Nov-24 22:30N 46°07' W 122°59'0 0.0
2016-Nov-24 21:33N 46°07' W 122°59'0 0.0
2016-Nov-24 20:33N 46°07' W 122°59'0 0.0
2016-Nov-24 19:33N 46°07' W 122°59'0 0.0
2016-Nov-24 18:30N 46°07' W 122°59'0 0.0
2016-Nov-24 17:33N 46°07' W 122°59'0 0.0
2016-Nov-24 16:33N 46°07' W 122°59'0 0.0
2016-Nov-24 15:33N 46°07' W 122°59'0 0.0
2016-Nov-24 14:30N 46°07' W 122°59'0 0.0
2016-Nov-24 13:33N 46°07' W 122°59'0 0.0
2016-Nov-24 12:33N 46°07' W 122°59'0 0.0
2016-Nov-24 11:33N 46°07' W 122°59'0 0.0
2016-Nov-24 10:33N 46°07' W 122°59'0 0.0
2016-Nov-24 09:33N 46°07' W 122°59'0 0.0
2016-Nov-24 08:33N 46°07' W 122°59'0 0.0
2016-Nov-24 07:33N 46°07' W 122°59'0 0.0
2016-Nov-24 06:33N 46°07' W 122°59'0 0.0
2016-Nov-24 05:33N 46°07' W 122°59'0 0.0
2016-Nov-24 04:30N 46°07' W 122°59'0 0.0
2016-Nov-24 03:30N 46°07' W 122°59'0 0.0
2016-Nov-24 02:27N 46°07' W 122°59'0 0.0
2016-Nov-24 01:33N 46°07' W 122°59'0 0.0
2016-Nov-24 00:33N 46°07' W 122°59'0 0.0
2016-Nov-23 23:33N 46°07' W 122°59'0 0.0
2016-Nov-23 22:30N 46°07' W 122°59'0 0.0
2016-Nov-23 21:33N 46°07' W 122°59'0 0.0
2016-Nov-23 20:33N 46°07' W 122°59'0 0.0
2016-Nov-23 19:30N 46°07' W 122°59'0 0.0
2016-Nov-23 18:33N 46°07' W 122°59'0 0.0
2016-Nov-23 17:33N 46°07' W 122°59'0 0.0
2016-Nov-23 16:33N 46°07' W 122°59'0 0.0
2016-Nov-23 15:33N 46°07' W 122°59'0 0.0
2016-Nov-23 14:33N 46°07' W 122°59'0 0.0
2016-Nov-23 13:33N 46°07' W 122°59'0 0.0
2016-Nov-23 12:33N 46°07' W 122°59'0 0.0
2016-Nov-23 11:34N 46°07' W 122°59'0 0.0
2016-Nov-23 10:33N 46°07' W 122°59'0 0.0
2016-Nov-23 09:33N 46°07' W 122°59'0 0.0
2016-Nov-23 08:34N 46°07' W 122°59'0 0.0
2016-Nov-23 07:34N 46°07' W 122°59'0 0.0
2016-Nov-23 06:33N 46°07' W 122°59'0 0.0
2016-Nov-23 03:33N 46°07' W 122°59'0 0.0
2016-Nov-23 02:33N 46°07' W 122°59'0 0.0
2016-Nov-23 00:34N 46°07' W 122°59'0 0.0
2016-Nov-22 23:34N 46°07' W 122°59'0 0.0
2016-Nov-22 22:33N 46°07' W 122°59'8 3.9
2016-Nov-22 20:34N 46°11' W 123°08'1110.6
2016-Nov-22 19:34N 46°09' W 123°23'17 8.4
2016-Nov-22 17:34N 46°13' W 123°47'9 8.6
2016-Nov-22 16:34N 46°14' W 123°59'  
Track history (hours):
 
Tides and Currents Weather Stations Pressure Air Temp Water Temp Dewpoint Dewpoint Depression Visibility Wind Speed Wind Dir Waves Ship Positions

Maratha Promise

Last reported at 2016-Dec-02 16:33 UTC. Time now 2016-Dec-03 19:40 UTC.
Position N 46°15' W 125°30'.

Length 178 m; draft 11 m.

Type: Cargo ship. MMSI: 538004641.

Date/timePositionNaut miles runAvg speedWind from/ knotsBaromVisibWave heightAir tempDewpointWater temp
2016-Dec-02 16:33N 46°15' W 125°30'8 8.5
2016-Dec-02 15:33N 46°15' W 125°18'8 8.4
2016-Dec-02 14:33N 46°15' W 125°05'8 8.1
2016-Dec-02 13:33N 46°15' W 124°54'8 7.9
2016-Dec-02 12:33N 46°15' W 124°42'8 8.1
2016-Dec-02 11:33N 46°15' W 124°31'8 8.3
2016-Dec-02 10:33N 46°13' W 124°19'8 6.8
2016-Dec-02 09:27N 46°13' W 124°08'9 7.6
2016-Dec-02 08:17N 46°12' W 123°56'6 8.2
2016-Dec-02 07:33N 46°13' W 123°47'1111.1
2016-Dec-02 06:33N 46°16' W 123°32'10 9.8
2016-Dec-02 05:33N 46°09' W 123°22'1211.9
2016-Dec-02 04:33N 46°10' W 123°05'1111.1
2016-Dec-02 03:33N 46°03' W 122°53'1110.9
2016-Dec-02 02:33N 45°52' W 122°47'1211.6
2016-Dec-02 01:34N 45°41' W 122°46'7 7.2
2016-Dec-02 00:33N 45°34' W 122°44'3 2.7
2016-Dec-01 23:30N 45°32' W 122°41'0 0.0
2016-Dec-01 22:18N 45°32' W 122°41'0 0.0
2016-Dec-01 21:24N 45°32' W 122°41'0 0.0
2016-Dec-01 20:21N 45°32' W 122°41'0 0.0
2016-Dec-01 19:33N 45°32' W 122°41'6 6.1
2016-Dec-01 18:33N 45°36' W 122°47'8 8.2
2016-Dec-01 17:33N 45°44' W 122°46'9 8.9
2016-Dec-01 16:33N 45°53' W 122°48'9 9.0
2016-Dec-01 15:33N 46°02' W 122°52'5 5.0
2016-Dec-01 14:32N 46°06' W 122°56'0 0.0
2016-Dec-01 13:32N 46°06' W 122°56'0 0.0
2016-Dec-01 12:29N 46°06' W 122°56'0 0.0
2016-Dec-01 11:32N 46°06' W 122°56'0 0.0
2016-Dec-01 10:29N 46°06' W 122°56'0 0.0
2016-Dec-01 09:29N 46°06' W 122°56'0 0.0
2016-Dec-01 08:29N 46°06' W 122°56'0 0.0
2016-Dec-01 07:32N 46°06' W 122°56'0 0.0
2016-Dec-01 06:29N 46°06' W 122°56'0 0.0
2016-Dec-01 05:29N 46°06' W 122°56'0 0.0
2016-Dec-01 04:32N 46°06' W 122°56'0 0.0
2016-Dec-01 03:32N 46°06' W 122°56'0 0.0
2016-Dec-01 02:32N 46°06' W 122°56'0 0.0
2016-Dec-01 01:32N 46°06' W 122°56'0 0.0
2016-Dec-01 00:32N 46°06' W 122°56'0 0.0
2016-Nov-30 23:32N 46°06' W 122°56'0 0.0
2016-Nov-30 22:32N 46°06' W 122°56'0 0.0
2016-Nov-30 21:32N 46°06' W 122°56'0 0.0
2016-Nov-30 20:29N 46°06' W 122°56'0 0.0
2016-Nov-30 19:32N 46°06' W 122°56'0 0.0
2016-Nov-30 18:29N 46°06' W 122°56'0 0.0
2016-Nov-30 17:32N 46°06' W 122°56'0 0.0
2016-Nov-30 16:29N 46°06' W 122°56'0 0.0
2016-Nov-30 15:32N 46°06' W 122°56'0 0.0
2016-Nov-30 14:32N 46°06' W 122°56'0 0.0
2016-Nov-30 13:32N 46°06' W 122°56'0 0.0
2016-Nov-30 12:32N 46°06' W 122°56'0 0.0
2016-Nov-30 11:32N 46°06' W 122°56'0 0.0
2016-Nov-30 10:32N 46°06' W 122°56'0 0.0
2016-Nov-30 09:32N 46°06' W 122°56'0 0.0
2016-Nov-30 08:32N 46°06' W 122°56'0 0.0
2016-Nov-30 07:32N 46°06' W 122°56'0 0.0
2016-Nov-30 06:29N 46°06' W 122°56'0 0.0
2016-Nov-30 05:32N 46°06' W 122°56'0 0.0
2016-Nov-30 04:32N 46°06' W 122°56'0 0.0
2016-Nov-30 03:32N 46°06' W 122°56'0 0.0
2016-Nov-30 02:29N 46°06' W 122°56'0 0.0
2016-Nov-30 01:29N 46°06' W 122°56'0 0.0
2016-Nov-30 00:32N 46°06' W 122°56'0 0.0
2016-Nov-29 23:32N 46°06' W 122°56'0 0.0
2016-Nov-29 22:32N 46°06' W 122°56'0 0.0
2016-Nov-29 21:32N 46°06' W 122°56'0 0.0
2016-Nov-29 20:29N 46°06' W 122°56'0 0.0
2016-Nov-29 19:32N 46°06' W 122°56'0 0.3
2016-Nov-29 18:33N 46°06' W 122°57'2 1.8
2016-Nov-29 17:33N 46°07' W 122°59'0 0.0
2016-Nov-29 16:33N 46°07' W 122°59'0 0.0
2016-Nov-29 15:30N 46°07' W 122°59'0 0.0
2016-Nov-29 14:33N 46°07' W 122°59'0 0.0
2016-Nov-29 13:33N 46°07' W 122°59'0 0.0
2016-Nov-29 12:33N 46°07' W 122°59'0 0.0
2016-Nov-29 11:33N 46°07' W 122°59'0 0.0
2016-Nov-29 10:30N 46°07' W 122°59'0 0.0
2016-Nov-29 09:33N 46°07' W 122°59'0 0.0
2016-Nov-29 08:33N 46°07' W 122°59'0 0.0
2016-Nov-29 07:30N 46°07' W 122°59'0 0.0
2016-Nov-29 06:33N 46°07' W 122°59'0 0.0
2016-Nov-29 05:33N 46°07' W 122°59'0 0.0
2016-Nov-29 04:30N 46°07' W 122°59'0 0.0
2016-Nov-29 03:33N 46°07' W 122°59'0 0.0
2016-Nov-29 02:30N 46°07' W 122°59'0 0.0
2016-Nov-29 01:33N 46°07' W 122°59'0 0.0
2016-Nov-29 00:33N 46°07' W 122°59'0 0.0
2016-Nov-28 23:33N 46°07' W 122°59'0 0.0
2016-Nov-28 22:33N 46°07' W 122°59'0 0.0
2016-Nov-28 21:30N 46°07' W 122°59'0 0.0
2016-Nov-28 20:33N 46°07' W 122°59'0 0.0
2016-Nov-28 19:33N 46°07' W 122°59'0 0.0
2016-Nov-28 18:33N 46°07' W 122°59'0 0.0
2016-Nov-28 17:33N 46°07' W 122°59'0 0.0
2016-Nov-28 16:33N 46°07' W 122°59'0 0.0
2016-Nov-28 15:33N 46°07' W 122°59'0 0.0
2016-Nov-28 14:30N 46°07' W 122°59'0 0.0
2016-Nov-28 13:33N 46°07' W 122°59'0 0.0
2016-Nov-28 12:33N 46°07' W 122°59'0 0.0
2016-Nov-28 11:33N 46°07' W 122°59'0 0.0
2016-Nov-28 10:33N 46°07' W 122°59'0 0.0
2016-Nov-28 09:33N 46°07' W 122°59'0 0.0
2016-Nov-28 08:33N 46°07' W 122°59'0 0.0
2016-Nov-28 07:30N 46°07' W 122°59'0 0.0
2016-Nov-28 06:33N 46°07' W 122°59'0 0.0
2016-Nov-28 05:33N 46°07' W 122°59'0 0.0
2016-Nov-28 04:33N 46°07' W 122°59'0 0.0
2016-Nov-28 03:30N 46°07' W 122°59'0 0.0
2016-Nov-28 02:30N 46°07' W 122°59'0 0.0
2016-Nov-28 01:33N 46°07' W 122°59'0 0.0
2016-Nov-28 00:33N 46°07' W 122°59'0 0.0
2016-Nov-27 23:33N 46°07' W 122°59'0 0.0
2016-Nov-27 22:33N 46°07' W 122°59'0 0.0
2016-Nov-27 21:33N 46°07' W 122°59'0 0.0
2016-Nov-27 20:33N 46°07' W 122°59'0 0.0
2016-Nov-27 19:33N 46°07' W 122°59'0 0.0
2016-Nov-27 18:33N 46°07' W 122°59'0 0.0
2016-Nov-27 17:33N 46°07' W 122°59'0 0.0
2016-Nov-27 16:33N 46°07' W 122°59'0 0.0
2016-Nov-27 15:27N 46°07' W 122°59'0 0.0
2016-Nov-27 14:33N 46°07' W 122°59'0 0.0
2016-Nov-27 13:33N 46°07' W 122°59'0 0.0
2016-Nov-27 12:33N 46°07' W 122°59'0 0.0
2016-Nov-27 11:33N 46°07' W 122°59'0 0.0
2016-Nov-27 10:33N 46°07' W 122°59'0 0.0
2016-Nov-27 09:33N 46°07' W 122°59'0 0.0
2016-Nov-27 08:33N 46°07' W 122°59'0 0.0
2016-Nov-27 07:33N 46°07' W 122°59'0 0.0
2016-Nov-27 06:33N 46°07' W 122°59'0 0.0
2016-Nov-27 05:33N 46°07' W 122°59'0 0.0
2016-Nov-27 04:33N 46°07' W 122°59'0 0.0
2016-Nov-27 03:33N 46°07' W 122°59'0 0.0
2016-Nov-27 02:33N 46°07' W 122°59'0 0.0
2016-Nov-27 01:33N 46°07' W 122°59'0 0.0
2016-Nov-27 00:33N 46°07' W 122°59'0 0.0
2016-Nov-26 23:33N 46°07' W 122°59'0 0.0
2016-Nov-26 22:33N 46°07' W 122°59'0 0.0
2016-Nov-26 21:33N 46°07' W 122°59'0 0.0
2016-Nov-26 20:33N 46°07' W 122°59'0 0.0
2016-Nov-26 19:33N 46°07' W 122°59'0 0.0
2016-Nov-26 18:33N 46°07' W 122°59'0 0.0
2016-Nov-26 17:33N 46°07' W 122°59'0 0.0
2016-Nov-26 16:30N 46°07' W 122°59'0 0.0
2016-Nov-26 15:30N 46°07' W 122°59'0 0.0
2016-Nov-26 14:33N 46°07' W 122°59'0 0.0
2016-Nov-26 13:30N 46°07' W 122°59'0 0.0
2016-Nov-26 12:33N 46°07' W 122°59'0 0.0
2016-Nov-26 11:30N 46°07' W 122°59'0 0.0
2016-Nov-26 10:33N 46°07' W 122°59'0 0.0
2016-Nov-26 09:33N 46°07' W 122°59'0 0.0
2016-Nov-26 08:33N 46°07' W 122°59'0 0.0
2016-Nov-26 07:33N 46°07' W 122°59'0 0.0
2016-Nov-26 06:30N 46°07' W 122°59'0 0.0
2016-Nov-26 05:33N 46°07' W 122°59'0 0.0
2016-Nov-26 04:33N 46°07' W 122°59'0 0.0
2016-Nov-26 03:33N 46°07' W 122°59'0 0.0
2016-Nov-26 02:33N 46°07' W 122°59'0 0.0
2016-Nov-26 01:33N 46°07' W 122°59'0 0.0
2016-Nov-26 00:33N 46°07' W 122°59'0 0.0
2016-Nov-25 23:30N 46°07' W 122°59'0 0.0
2016-Nov-25 22:33N 46°07' W 122°59'0 0.0
2016-Nov-25 21:33N 46°07' W 122°59'0 0.0
2016-Nov-25 20:33N 46°07' W 122°59'0 0.0
2016-Nov-25 19:33N 46°07' W 122°59'0 0.0
2016-Nov-25 18:33N 46°07' W 122°59'0 0.0
2016-Nov-25 17:30N 46°07' W 122°59'0 0.0
2016-Nov-25 16:33N 46°07' W 122°59'0 0.0
2016-Nov-25 15:33N 46°07' W 122°59'0 0.0
2016-Nov-25 14:33N 46°07' W 122°59'0 0.0
2016-Nov-25 13:33N 46°07' W 122°59'0 0.0
2016-Nov-25 12:30N 46°07' W 122°59'0 0.0
2016-Nov-25 11:33N 46°07' W 122°59'0 0.0
2016-Nov-25 10:33N 46°07' W 122°59'0 0.0
2016-Nov-25 09:33N 46°07' W 122°59'0 0.0
2016-Nov-25 08:30N 46°07' W 122°59'0 0.0
2016-Nov-25 07:33N 46°07' W 122°59'0 0.0
2016-Nov-25 06:33N 46°07' W 122°59'0 0.0
2016-Nov-25 05:30N 46°07' W 122°59'0 0.0
2016-Nov-25 04:33N 46°07' W 122°59'0 0.0
2016-Nov-25 03:33N 46°07' W 122°59'0 0.0
2016-Nov-25 02:33N 46°07' W 122°59'0 0.0
2016-Nov-25 01:33N 46°07' W 122°59'0 0.0
2016-Nov-25 00:33N 46°07' W 122°59'0 0.0
2016-Nov-24 23:33N 46°07' W 122°59'0 0.0
2016-Nov-24 22:30N 46°07' W 122°59'0 0.0
2016-Nov-24 21:33N 46°07' W 122°59'0 0.0
2016-Nov-24 20:33N 46°07' W 122°59'0 0.0
2016-Nov-24 19:33N 46°07' W 122°59'0 0.0
2016-Nov-24 18:30N 46°07' W 122°59'0 0.0
2016-Nov-24 17:33N 46°07' W 122°59'0 0.0
2016-Nov-24 16:33N 46°07' W 122°59'0 0.0
2016-Nov-24 15:33N 46°07' W 122°59'0 0.0
2016-Nov-24 14:30N 46°07' W 122°59'0 0.0
2016-Nov-24 13:33N 46°07' W 122°59'0 0.0
2016-Nov-24 12:33N 46°07' W 122°59'0 0.0
2016-Nov-24 11:33N 46°07' W 122°59'0 0.0
2016-Nov-24 10:33N 46°07' W 122°59'0 0.0
2016-Nov-24 09:33N 46°07' W 122°59'0 0.0
2016-Nov-24 08:33N 46°07' W 122°59'0 0.0
2016-Nov-24 07:33N 46°07' W 122°59'0 0.0
2016-Nov-24 06:33N 46°07' W 122°59'0 0.0
2016-Nov-24 05:33N 46°07' W 122°59'0 0.0
2016-Nov-24 04:30N 46°07' W 122°59'0 0.0
2016-Nov-24 03:30N 46°07' W 122°59'0 0.0
2016-Nov-24 02:27N 46°07' W 122°59'0 0.0
2016-Nov-24 01:33N 46°07' W 122°59'0 0.0
2016-Nov-24 00:33N 46°07' W 122°59'0 0.0
2016-Nov-23 23:33N 46°07' W 122°59'0 0.0
2016-Nov-23 22:30N 46°07' W 122°59'0 0.0
2016-Nov-23 21:33N 46°07' W 122°59'0 0.0
2016-Nov-23 20:33N 46°07' W 122°59'0 0.0
2016-Nov-23 19:30N 46°07' W 122°59'0 0.0
2016-Nov-23 18:33N 46°07' W 122°59'0 0.0
2016-Nov-23 17:33N 46°07' W 122°59'0 0.0
2016-Nov-23 16:33N 46°07' W 122°59'0 0.0
2016-Nov-23 15:33N 46°07' W 122°59'0 0.0
2016-Nov-23 14:33N 46°07' W 122°59'0 0.0
2016-Nov-23 13:33N 46°07' W 122°59'0 0.0
2016-Nov-23 12:33N 46°07' W 122°59'0 0.0
2016-Nov-23 11:34N 46°07' W 122°59'0 0.0
2016-Nov-23 10:33N 46°07' W 122°59'0 0.0
2016-Nov-23 09:33N 46°07' W 122°59'0 0.0
2016-Nov-23 08:34N 46°07' W 122°59'0 0.0
2016-Nov-23 07:34N 46°07' W 122°59'0 0.0
2016-Nov-23 06:33N 46°07' W 122°59'0 0.0
2016-Nov-23 03:33N 46°07' W 122°59'0 0.0
2016-Nov-23 02:33N 46°07' W 122°59'0 0.0
2016-Nov-23 00:34N 46°07' W 122°59'0 0.0
2016-Nov-22 23:34N 46°07' W 122°59'0 0.0
2016-Nov-22 22:33N 46°07' W 122°59'8 3.9
2016-Nov-22 20:34N 46°11' W 123°08'1110.6
2016-Nov-22 19:34N 46°09' W 123°23'17 8.4
2016-Nov-22 17:34N 46°13' W 123°47'9 8.6
2016-Nov-22 16:34N 46°14' W 123°59'  

Dump ship's entire track history